Time;durP1;ratioP1;P1;durP2;ratioP2;P2;SDS_P1;SDS_P2;PMS_P1;PMS_P2;Temp;Humidity;BMP_temperature;BMP_pressure;BME280_temperature;BME280_humidity;BME280_pressure;Samples;Min_cycle;Max_cycle;Signal;HPM_P1;HPM_P2
2023/03/12 00:02:08;;;;;;;28.00;13.60;;;;;;;;;;4204103;28;20086;-86
2023/03/12 00:04:28;;;;;;;24.23;11.73;;;;;;;;;;4187061;28;20066;-86
2023/03/12 00:06:49;;;;;;;29.38;11.98;;;;;;;;;;4187286;28;20048;-86
2023/03/12 00:09:09;;;;;;;25.33;12.27;;;;;;;;;;4190168;28;20063;-85
2023/03/12 00:11:30;;;;;;;30.25;10.30;;;;;;;;;;4188768;28;20120;-85
2023/03/12 00:13:52;;;;;;;25.13;10.15;;;;;;;;;;4189107;28;20044;-86
2023/03/12 00:16:14;;;;;;;21.88;10.25;;;;;;;;;;4204497;28;20375;-85
2023/03/12 00:18:34;;;;;;;19.77;10.95;;;;;;;;;;4191910;28;20167;-86
2023/03/12 00:20:55;;;;;;;24.98;12.88;;;;;;;;;;4187461;28;20095;-86
2023/03/12 00:23:15;;;;;;;16.15;10.90;;;;;;;;;;4189279;28;20083;-86
2023/03/12 00:25:35;;;;;;;28.00;12.63;;;;;;;;;;4192035;28;20064;-86
2023/03/12 00:27:55;;;;;;;16.10;9.93;;;;;;;;;;4192949;28;20366;-86
2023/03/12 00:30:16;;;;;;;14.00;9.32;;;;;;;;;;4189156;28;20085;-85
2023/03/12 00:32:37;;;;;;;17.63;7.43;;;;;;;;;;4190796;28;20237;-86
2023/03/12 00:34:57;;;;;;;17.95;8.52;;;;;;;;;;4191773;28;20387;-86
2023/03/12 00:37:20;;;;;;;18.42;10.48;;;;;;;;;;4189241;28;20044;-85
2023/03/12 00:39:40;;;;;;;13.13;7.57;;;;;;;;;;4186949;28;20052;-86
2023/03/12 00:42:00;;;;;;;15.65;9.52;;;;;;;;;;4190475;28;20075;-86
2023/03/12 00:44:21;;;;;;;19.30;9.48;;;;;;;;;;4188687;28;20048;-86
2023/03/12 00:46:41;;;;;;;20.42;8.98;;;;;;;;;;4185674;28;20075;-86
2023/03/12 00:49:01;;;;;;;26.83;9.90;;;;;;;;;;4188075;28;20398;-86
2023/03/12 00:51:21;;;;;;;15.15;8.50;;;;;;;;;;4188960;28;20047;-86
2023/03/12 00:53:42;;;;;;;14.73;9.40;;;;;;;;;;4189307;28;20109;-86
2023/03/12 00:56:03;;;;;;;15.20;8.68;;;;;;;;;;4190406;28;20094;-86
2023/03/12 00:58:24;;;;;;;17.73;9.65;;;;;;;;;;4192633;28;20087;-85
2023/03/12 01:00:44;;;;;;;20.75;8.90;;;;;;;;;;4195180;28;20079;-86
2023/03/12 01:03:05;;;;;;;23.05;9.20;;;;;;;;;;4195772;28;20296;-86
2023/03/12 01:05:25;;;;;;;21.02;10.30;;;;;;;;;;4191220;28;20052;-86
2023/03/12 01:07:45;;;;;;;18.33;10.48;;;;;;;;;;4206066;28;20406;-86
2023/03/12 01:10:07;;;;;;;26.20;9.73;;;;;;;;;;4206437;28;20121;-85
2023/03/12 01:12:27;;;;;;;23.35;9.07;;;;;;;;;;4206315;28;20091;-86
2023/03/12 01:14:47;;;;;;;16.13;9.68;;;;;;;;;;4203959;28;20081;-85
2023/03/12 01:17:22;;;;;;;29.02;10.23;;;;;;;;;;4205021;28;20047;-86
2023/03/12 01:19:42;;;;;;;21.40;8.55;;;;;;;;;;4206037;28;20374;-85
2023/03/12 01:22:03;;;;;;;20.92;10.32;;;;;;;;;;4191848;28;20275;-86
2023/03/12 01:24:23;;;;;;;20.35;9.35;;;;;;;;;;4189734;28;20294;-86
2023/03/12 01:26:44;;;;;;;10.80;7.30;;;;;;;;;;4191811;28;20348;-86
2023/03/12 01:29:04;;;;;;;13.80;6.85;;;;;;;;;;4193822;28;20064;-85
2023/03/12 01:31:24;;;;;;;18.98;8.00;;;;;;;;;;4188872;28;20056;-86
2023/03/12 01:33:49;;;;;;;17.33;8.70;;;;;;;;;;4189892;28;20070;-86
2023/03/12 01:36:29;;;;;;;14.00;9.00;;;;;;;;;;4194903;28;20063;-86
2023/03/12 01:38:50;;;;;;;18.42;8.15;;;;;;;;;;4204535;28;20154;-86
2023/03/12 01:41:10;;;;;;;18.58;9.13;;;;;;;;;;4203595;28;20052;-86
2023/03/12 01:43:32;;;;;;;14.27;7.97;;;;;;;;;;4191014;28;20101;-85
2023/03/12 01:46:04;;;;;;;13.27;7.65;;;;;;;;;;4192304;28;20048;-85
2023/03/12 01:48:25;;;;;;;14.30;7.55;;;;;;;;;;4205302;28;20267;-86
2023/03/12 01:50:45;;;;;;;14.57;7.50;;;;;;;;;;4203931;28;20048;-86
2023/03/12 01:53:05;;;;;;;15.63;7.00;;;;;;;;;;4205244;28;20047;-86
2023/03/12 01:55:26;;;;;;;19.52;8.45;;;;;;;;;;4193124;28;20050;-86
2023/03/12 01:57:51;;;;;;;14.98;8.10;;;;;;;;;;4193107;28;20048;-86
2023/03/12 02:00:14;;;;;;;18.70;8.27;;;;;;;;;;4190262;28;20410;-86
2023/03/12 02:02:35;;;;;;;12.57;7.50;;;;;;;;;;4192168;28;20148;-85
2023/03/12 02:05:02;;;;;;;17.38;8.30;;;;;;;;;;4198172;22;20060;-88
2023/03/12 02:07:22;;;;;;;21.92;7.90;;;;;;;;;;4171921;28;20377;-87
2023/03/12 02:09:44;;;;;;;10.13;7.57;;;;;;;;;;4173433;28;20080;-88
2023/03/12 02:12:05;;;;;;;20.40;7.68;;;;;;;;;;4172908;28;20049;-88
2023/03/12 02:14:26;;;;;;;17.15;7.82;;;;;;;;;;4171974;28;20051;-88
2023/03/12 02:16:45;;;;;;;15.02;8.35;;;;;;;;;;4171469;28;20115;-88
2023/03/12 02:19:11;;;;;;;25.70;9.05;;;;;;;;;;4173701;28;20048;-87
2023/03/12 02:21:34;;;;;;;22.48;11.15;;;;;;;;;;4172985;28;20064;-88
2023/03/12 02:24:02;;;;;;;18.33;9.00;;;;;;;;;;4173498;28;20043;-88
2023/03/12 02:26:24;;;;;;;19.08;10.10;;;;;;;;;;4173100;28;20721;-87
2023/03/12 02:28:45;;;;;;;10.20;8.15;;;;;;;;;;4173683;28;20334;-88
2023/03/12 02:31:06;;;;;;;15.93;9.98;;;;;;;;;;4173316;28;20057;-87
2023/03/12 02:33:26;;;;;;;13.05;8.98;;;;;;;;;;4175090;28;20044;-88
2023/03/12 02:35:47;;;;;;;17.17;9.40;;;;;;;;;;4172816;28;20080;-88
2023/03/12 02:38:26;;;;;;;19.90;9.70;;;;;;;;;;4172433;28;20120;-87
2023/03/12 02:40:47;;;;;;;16.80;9.77;;;;;;;;;;4173414;28;20084;-88
2023/03/12 02:43:08;;;;;;;18.08;9.85;;;;;;;;;;4172157;28;20072;-88
2023/03/12 02:45:28;;;;;;;12.65;10.00;;;;;;;;;;4173688;28;20091;-87
2023/03/12 02:47:48;;;;;;;16.52;9.25;;;;;;;;;;4172835;28;20048;-88
2023/03/12 02:50:09;;;;;;;21.73;9.98;;;;;;;;;;4174643;28;20144;-88
2023/03/12 02:52:34;;;;;;;17.65;10.70;;;;;;;;;;4173546;28;20232;-87
2023/03/12 02:54:54;;;;;;;13.35;8.85;;;;;;;;;;4172417;28;20076;-87
2023/03/12 02:57:14;;;;;;;11.93;8.80;;;;;;;;;;4173151;28;20067;-87
2023/03/12 02:59:34;;;;;;;8.75;6.03;;;;;;;;;;4172984;28;20071;-87
2023/03/12 03:01:56;;;;;;;8.10;6.53;;;;;;;;;;4173054;28;20044;-88
2023/03/12 03:04:16;;;;;;;7.35;6.85;;;;;;;;;;4173806;28;20366;-88
2023/03/12 03:06:37;;;;;;;10.55;7.80;;;;;;;;;;4185876;28;20088;-88
2023/03/12 03:08:58;;;;;;;11.20;7.25;;;;;;;;;;4171763;28;20044;-87
2023/03/12 03:11:23;;;;;;;17.83;8.68;;;;;;;;;;4172534;28;20064;-87
2023/03/12 03:13:43;;;;;;;17.05;8.43;;;;;;;;;;4172878;28;20243;-88
2023/03/12 03:16:03;;;;;;;15.63;8.30;;;;;;;;;;4160506;28;20156;-88
2023/03/12 03:18:24;;;;;;;7.80;7.03;;;;;;;;;;4172159;28;20049;-88
2023/03/12 03:20:44;;;;;;;11.98;7.78;;;;;;;;;;4185319;28;20075;-87
2023/03/12 03:23:04;;;;;;;14.23;7.90;;;;;;;;;;4171198;28;20040;-88
2023/03/12 03:25:24;;;;;;;9.43;7.32;;;;;;;;;;4168995;28;20096;-88
2023/03/12 03:27:44;;;;;;;10.85;5.10;;;;;;;;;;4171360;28;20309;-88
2023/03/12 03:30:05;;;;;;;8.20;6.47;;;;;;;;;;4171786;28;20064;-87
2023/03/12 03:32:25;;;;;;;11.77;7.10;;;;;;;;;;4186097;28;20051;-88
2023/03/12 03:34:45;;;;;;;11.32;7.10;;;;;;;;;;4185881;28;20382;-88
2023/03/12 03:37:05;;;;;;;13.68;7.13;;;;;;;;;;4185768;28;20091;-88
2023/03/12 03:39:27;;;;;;;14.30;6.55;;;;;;;;;;4162613;28;20076;-88
2023/03/12 03:41:47;;;;;;;10.48;6.05;;;;;;;;;;4184607;28;20051;-88
2023/03/12 03:44:07;;;;;;;8.40;6.68;;;;;;;;;;4170811;28;20335;-88
2023/03/12 03:46:27;;;;;;;13.13;6.50;;;;;;;;;;4184586;28;20052;-87
2023/03/12 03:48:49;;;;;;;13.02;6.53;;;;;;;;;;4185754;28;20048;-88
2023/03/12 03:51:10;;;;;;;7.25;6.18;;;;;;;;;;4184122;28;20048;-88
2023/03/12 03:53:30;;;;;;;10.43;6.50;;;;;;;;;;4185135;28;20422;-88
2023/03/12 03:55:50;;;;;;;8.02;7.20;;;;;;;;;;4163550;28;20047;-88
2023/03/12 03:58:10;;;;;;;12.35;5.80;;;;;;;;;;4170254;28;20448;-88
2023/03/12 04:00:31;;;;;;;8.60;6.03;;;;;;;;;;4172560;28;20053;-88
2023/03/12 04:02:51;;;;;;;11.65;8.40;;;;;;;;;;4184927;28;20048;-88
2023/03/12 04:05:11;;;;;;;13.05;7.05;;;;;;;;;;4172388;28;20057;-88
2023/03/12 04:07:32;;;;;;;7.13;5.78;;;;;;;;;;4185435;28;20064;-88
2023/03/12 04:09:52;;;;;;;7.03;6.43;;;;;;;;;;4170683;28;20071;-88
2023/03/12 04:12:12;;;;;;;6.78;6.15;;;;;;;;;;4185427;28;20513;-88
2023/03/12 04:14:32;;;;;;;11.25;7.55;;;;;;;;;;4171239;28;20045;-88
2023/03/12 04:16:52;;;;;;;11.02;6.03;;;;;;;;;;4171475;28;20049;-88
2023/03/12 04:19:12;;;;;;;11.63;6.22;;;;;;;;;;4172503;28;20107;-88
2023/03/12 04:21:33;;;;;;;8.75;6.28;;;;;;;;;;4172080;28;20060;-88
2023/03/12 04:23:53;;;;;;;7.95;7.05;;;;;;;;;;4173115;28;20048;-88
2023/03/12 04:26:13;;;;;;;8.95;5.78;;;;;;;;;;4172343;28;20047;-88
2023/03/12 04:28:34;;;;;;;14.23;5.55;;;;;;;;;;4172053;28;20415;-88
2023/03/12 04:30:55;;;;;;;8.27;6.25;;;;;;;;;;4173712;28;20068;-88
2023/03/12 04:33:15;;;;;;;9.35;6.63;;;;;;;;;;4188468;28;20107;-87
2023/03/12 04:35:36;;;;;;;11.15;6.05;;;;;;;;;;4173664;28;20047;-88
2023/03/12 04:37:56;;;;;;;8.35;6.18;;;;;;;;;;4173931;28;20052;-87
2023/03/12 04:40:18;;;;;;;9.32;6.72;;;;;;;;;;4186941;28;20056;-88
2023/03/12 04:42:38;;;;;;;15.77;7.78;;;;;;;;;;4173123;28;20068;-88
2023/03/12 04:44:58;;;;;;;10.88;6.28;;;;;;;;;;4187953;28;20055;-87
2023/03/12 04:47:19;;;;;;;10.13;7.18;;;;;;;;;;4173519;28;20061;-88
2023/03/12 04:49:39;;;;;;;9.50;7.15;;;;;;;;;;4173666;28;20101;-88
2023/03/12 04:51:59;;;;;;;10.68;6.75;;;;;;;;;;4174882;28;20084;-88
2023/03/12 04:54:22;;;;;;;9.50;6.00;;;;;;;;;;4174822;28;20101;-88
2023/03/12 04:56:43;;;;;;;12.23;7.63;;;;;;;;;;4187268;28;20087;-88
2023/03/12 04:59:03;;;;;;;13.27;7.35;;;;;;;;;;4173548;28;20370;-88
2023/03/12 05:01:28;;;;;;;14.98;7.05;;;;;;;;;;4172197;28;20083;-88
2023/03/12 05:03:48;;;;;;;8.02;6.88;;;;;;;;;;4173257;28;20108;-88
2023/03/12 05:06:09;;;;;;;16.52;7.85;;;;;;;;;;4187259;28;20068;-88
2023/03/12 05:08:29;;;;;;;18.05;7.28;;;;;;;;;;4174686;28;20044;-87
2023/03/12 05:10:49;;;;;;;11.20;7.32;;;;;;;;;;4174789;28;20072;-87
2023/03/12 05:13:16;;;;;;;13.80;8.35;;;;;;;;;;4174679;28;20235;-87
2023/03/12 05:15:37;;;;;;;9.27;7.32;;;;;;;;;;4174494;28;20088;-88
2023/03/12 05:17:57;;;;;;;16.42;8.07;;;;;;;;;;4173750;28;20096;-88
2023/03/12 05:20:18;;;;;;;15.77;7.22;;;;;;;;;;4187645;28;20496;-87
2023/03/12 05:22:39;;;;;;;20.48;8.25;;;;;;;;;;4186095;28;20260;-87
2023/03/12 05:24:59;;;;;;;16.40;7.63;;;;;;;;;;4187532;28;20048;-87
2023/03/12 05:27:19;;;;;;;16.55;7.75;;;;;;;;;;4174354;28;20056;-87
2023/03/12 05:29:39;;;;;;;12.57;7.55;;;;;;;;;;4185710;28;20048;-87
2023/03/12 05:31:59;;;;;;;13.20;8.45;;;;;;;;;;4174281;28;20383;-87
2023/03/12 05:34:19;;;;;;;18.25;7.43;;;;;;;;;;4188333;28;20136;-88
2023/03/12 05:36:39;;;;;;;20.52;8.07;;;;;;;;;;4185531;28;20064;-87
2023/03/12 05:38:59;;;;;;;15.38;7.88;;;;;;;;;;4174402;28;20052;-88
2023/03/12 05:41:21;;;;;;;18.05;8.70;;;;;;;;;;4173729;28;20091;-87
2023/03/12 05:43:42;;;;;;;8.55;7.30;;;;;;;;;;4172943;28;20052;-88
2023/03/12 05:46:03;;;;;;;14.23;8.48;;;;;;;;;;4174044;28;20048;-87
2023/03/12 05:48:23;;;;;;;18.98;7.47;;;;;;;;;;4164269;28;20095;-88
2023/03/12 05:50:44;;;;;;;45.65;6.53;;;;;;;;;;4172901;28;20076;-88
2023/03/12 05:53:04;;;;;;;43.15;7.65;;;;;;;;;;4173995;28;20113;-87
2023/03/12 05:55:24;;;;;;;16.80;5.97;;;;;;;;;;4173402;28;20088;-87
2023/03/12 05:57:44;;;;;;;50.45;7.35;;;;;;;;;;4173189;28;20061;-88
2023/03/12 06:00:05;;;;;;;94.68;9.95;;;;;;;;;;4173115;28;20060;-88
2023/03/12 06:02:25;;;;;;;102.18;9.85;;;;;;;;;;4172919;28;20052;-88
2023/03/12 06:04:45;;;;;;;51.00;6.70;;;;;;;;;;4172685;28;20055;-88
2023/03/12 06:07:05;;;;;;;62.33;7.97;;;;;;;;;;4173871;28;20141;-88
2023/03/12 06:09:25;;;;;;;65.05;7.47;;;;;;;;;;4186107;28;20108;-87
2023/03/12 06:11:45;;;;;;;75.00;7.20;;;;;;;;;;4185135;28;20394;-88
2023/03/12 06:14:06;;;;;;;53.15;7.03;;;;;;;;;;4189520;28;20389;-87
2023/03/12 06:16:27;;;;;;;40.20;5.40;;;;;;;;;;4172989;28;20242;-87
2023/03/12 06:18:47;;;;;;;79.93;7.90;;;;;;;;;;4187522;28;20044;-87
2023/03/12 06:21:12;;;;;;;63.35;8.13;;;;;;;;;;4188989;28;20083;-87
2023/03/12 06:23:32;;;;;;;102.78;9.13;;;;;;;;;;4188560;28;20156;-88
2023/03/12 06:25:52;;;;;;;119.07;10.18;;;;;;;;;;4159984;28;20295;-87
2023/03/12 06:28:12;;;;;;;90.47;7.78;;;;;;;;;;4162667;28;20053;-87
2023/03/12 06:30:32;;;;;;;12.70;5.78;;;;;;;;;;4187716;28;20443;-87
2023/03/12 06:32:53;;;;;;;5.97;5.47;;;;;;;;;;4173188;28;20347;-83
2023/03/12 06:35:13;;;;;;;132.32;12.52;;;;;;;;;;4186666;28;20082;-82
2023/03/12 06:37:33;;;;;;;84.13;8.15;;;;;;;;;;4176470;28;20095;-82
2023/03/12 06:39:53;;;;;;;161.25;10.98;;;;;;;;;;4173153;28;20043;-82
2023/03/12 06:42:14;;;;;;;54.55;7.35;;;;;;;;;;4172252;28;20103;-82
2023/03/12 06:44:34;;;;;;;97.22;11.48;;;;;;;;;;4171371;28;20087;-82
2023/03/12 06:46:54;;;;;;;58.38;6.75;;;;;;;;;;4174867;28;20103;-84
2023/03/12 06:49:15;;;;;;;137.52;9.02;;;;;;;;;;4172058;28;20111;-84
2023/03/12 06:51:35;;;;;;;135.43;10.77;;;;;;;;;;4171681;28;20248;-84
2023/03/12 06:53:55;;;;;;;193.50;11.93;;;;;;;;;;4172537;28;20087;-84
2023/03/12 06:56:15;;;;;;;107.10;7.03;;;;;;;;;;4173120;28;20067;-84
2023/03/12 06:58:35;;;;;;;51.45;5.75;;;;;;;;;;4173237;28;20240;-84
2023/03/12 07:00:56;;;;;;;95.97;7.97;;;;;;;;;;4174647;28;20129;-84
2023/03/12 07:03:16;;;;;;;112.55;7.32;;;;;;;;;;4172973;28;20051;-84
2023/03/12 07:05:36;;;;;;;135.00;8.68;;;;;;;;;;4172557;28;20049;-84
2023/03/12 07:07:57;;;;;;;131.15;9.85;;;;;;;;;;4172916;28;20048;-84
2023/03/12 07:10:17;;;;;;;121.47;8.02;;;;;;;;;;4184837;28;20378;-84
2023/03/12 07:12:37;;;;;;;26.80;5.20;;;;;;;;;;4179897;28;20079;-84
2023/03/12 07:14:58;;;;;;;23.35;5.78;;;;;;;;;;4171681;28;20045;-84
2023/03/12 07:17:18;;;;;;;62.03;6.70;;;;;;;;;;4172529;28;20256;-84
2023/03/12 07:19:38;;;;;;;15.07;4.68;;;;;;;;;;4171262;28;20530;-84
2023/03/12 07:21:59;;;;;;;37.50;5.25;;;;;;;;;;4187556;28;20087;-84
2023/03/12 07:24:19;;;;;;;28.90;6.00;;;;;;;;;;4171141;28;20080;-84
2023/03/12 07:26:39;;;;;;;12.60;5.43;;;;;;;;;;4184980;28;20079;-84
2023/03/12 07:28:59;;;;;;;5.65;5.45;;;;;;;;;;4185708;28;20111;-84
2023/03/12 07:31:20;;;;;;;14.13;6.18;;;;;;;;;;4186054;28;20052;-84
2023/03/12 07:33:40;;;;;;;9.18;8.75;;;;;;;;;;4185750;28;20083;-84
2023/03/12 07:36:01;;;;;;;7.40;6.95;;;;;;;;;;4172662;28;20044;-86
2023/03/12 07:38:22;;;;;;;4.97;4.70;;;;;;;;;;4172628;28;20421;-80
2023/03/12 07:40:43;;;;;;;12.15;5.38;;;;;;;;;;4171366;28;20394;-80
2023/03/12 07:43:10;;;;;;;23.15;15.75;;;;;;;;;;4185773;28;20243;-79
2023/03/12 07:45:30;;;;;;;45.08;7.55;;;;;;;;;;4166750;28;20099;-79
2023/03/12 07:47:50;;;;;;;23.25;8.13;;;;;;;;;;4170151;28;20048;-79
2023/03/12 07:50:11;;;;;;;33.22;5.75;;;;;;;;;;4184639;28;20048;-80
2023/03/12 07:52:31;;;;;;;41.47;6.90;;;;;;;;;;4170439;28;20063;-79
2023/03/12 07:54:53;;;;;;;7.10;4.55;;;;;;;;;;4184489;28;20259;-79
2023/03/12 07:57:13;;;;;;;5.90;5.50;;;;;;;;;;4185511;28;20043;-79
2023/03/12 07:59:33;;;;;;;5.95;5.53;;;;;;;;;;4184255;28;20055;-79
2023/03/12 08:01:53;;;;;;;5.13;5.00;;;;;;;;;;4185360;28;20152;-79
2023/03/12 08:04:14;;;;;;;4.70;4.50;;;;;;;;;;4170051;28;20045;-79
2023/03/12 08:06:34;;;;;;;5.80;5.22;;;;;;;;;;4171430;28;20088;-79
2023/03/12 08:08:54;;;;;;;5.07;4.72;;;;;;;;;;4171183;28;20382;-79
2023/03/12 08:11:15;;;;;;;11.43;4.53;;;;;;;;;;4171880;28;20047;-79
2023/03/12 08:13:35;;;;;;;4.25;4.15;;;;;;;;;;4170133;28;20390;-79
2023/03/12 08:15:55;;;;;;;4.22;4.07;;;;;;;;;;4171495;28;20094;-79
2023/03/12 08:18:15;;;;;;;5.22;4.82;;;;;;;;;;4171201;28;20115;-79
2023/03/12 08:20:35;;;;;;;5.80;5.40;;;;;;;;;;4184426;28;20355;-80
2023/03/12 08:22:56;;;;;;;8.27;6.95;;;;;;;;;;4186120;28;20203;-80
2023/03/12 08:25:17;;;;;;;6.07;5.32;;;;;;;;;;4185301;28;20044;-80
2023/03/12 08:27:37;;;;;;;5.40;4.90;;;;;;;;;;4172178;28;20056;-80
2023/03/12 08:29:57;;;;;;;10.07;8.65;;;;;;;;;;4172240;28;20044;-80
2023/03/12 08:32:17;;;;;;;5.50;5.30;;;;;;;;;;4172088;28;20300;-80
2023/03/12 08:34:38;;;;;;;5.18;4.65;;;;;;;;;;4172041;28;20064;-80
2023/03/12 08:36:58;;;;;;;6.50;5.68;;;;;;;;;;4185183;28;20068;-79
2023/03/12 08:39:18;;;;;;;8.95;7.72;;;;;;;;;;4170795;28;20060;-79
2023/03/12 08:41:38;;;;;;;6.18;5.63;;;;;;;;;;4170707;28;20048;-80
2023/03/12 08:43:58;;;;;;;4.65;4.40;;;;;;;;;;4171815;28;20049;-80
2023/03/12 08:46:19;;;;;;;6.00;5.57;;;;;;;;;;4175702;28;20113;-80
2023/03/12 08:48:39;;;;;;;5.60;5.10;;;;;;;;;;4189835;28;20110;-80
2023/03/12 08:51:02;;;;;;;5.85;5.50;;;;;;;;;;4170590;28;20040;-80
2023/03/12 08:53:24;;;;;;;4.80;4.60;;;;;;;;;;4170871;28;20083;-80
2023/03/12 08:55:44;;;;;;;6.57;5.82;;;;;;;;;;4171769;28;20048;-80
2023/03/12 08:58:04;;;;;;;3.75;3.55;;;;;;;;;;4171649;28;20363;-80
2023/03/12 09:00:24;;;;;;;5.25;4.85;;;;;;;;;;4174095;28;20090;-80
2023/03/12 09:02:45;;;;;;;4.10;4.00;;;;;;;;;;4170686;28;20148;-80
2023/03/12 09:05:06;;;;;;;4.68;4.45;;;;;;;;;;4187724;28;20052;-79
2023/03/12 09:07:26;;;;;;;4.85;4.60;;;;;;;;;;4170478;28;20099;-79
2023/03/12 09:09:46;;;;;;;5.70;5.25;;;;;;;;;;4170776;28;20276;-79
2023/03/12 09:12:06;;;;;;;5.93;5.68;;;;;;;;;;4184835;28;20047;-79
2023/03/12 09:14:27;;;;;;;5.22;5.13;;;;;;;;;;4171414;28;20056;-79
2023/03/12 09:17:07;;;;;;;5.53;5.25;;;;;;;;;;4172723;28;20091;-79
2023/03/12 09:19:27;;;;;;;5.78;5.30;;;;;;;;;;4174265;28;20056;-79
2023/03/12 09:21:48;;;;;;;4.50;4.40;;;;;;;;;;4173310;28;20060;-79
2023/03/12 09:24:09;;;;;;;4.70;4.43;;;;;;;;;;4172626;28;20076;-79
2023/03/12 09:26:29;;;;;;;5.20;5.00;;;;;;;;;;4174938;28;20235;-80
2023/03/12 09:28:49;;;;;;;4.90;4.47;;;;;;;;;;4173519;28;20247;-77
2023/03/12 09:31:09;;;;;;;4.72;4.55;;;;;;;;;;4172593;28;20084;-78
2023/03/12 09:33:30;;;;;;;4.22;4.13;;;;;;;;;;4172494;28;20053;-78
2023/03/12 09:35:58;;;;;;;4.93;4.63;;;;;;;;;;4174082;28;20052;-77
2023/03/12 09:38:18;;;;;;;4.90;4.47;;;;;;;;;;4158484;28;20059;-77
2023/03/12 09:40:38;;;;;;;4.22;4.13;;;;;;;;;;4172150;28;20052;-78
2023/03/12 09:43:01;;;;;;;4.45;4.25;;;;;;;;;;4174152;28;20454;-78
2023/03/12 09:45:27;;;;;;;3.95;3.85;;;;;;;;;;4167194;28;20057;-77
2023/03/12 09:47:49;;;;;;;4.50;4.30;;;;;;;;;;4174120;28;20452;-77
2023/03/12 09:50:12;;;;;;;3.97;3.88;;;;;;;;;;4173698;28;20083;-77
2023/03/12 09:52:41;;;;;;;4.63;4.43;;;;;;;;;;4172728;28;20065;-77
2023/03/12 09:55:06;;;;;;;4.30;3.97;;;;;;;;;;4187022;28;20052;-77
2023/03/12 09:57:41;;;;;;;3.75;3.65;;;;;;;;;;4173882;28;20056;-78
2023/03/12 10:00:04;;;;;;;5.22;5.03;;;;;;;;;;4173033;28;20105;-77
2023/03/12 10:02:54;;;;;;;5.38;4.97;;;;;;;;;;4186539;28;20052;-77
2023/03/12 10:05:21;;;;;;;4.40;4.20;;;;;;;;;;4183593;28;20048;-78
2023/03/12 10:07:47;;;;;;;5.72;5.32;;;;;;;;;;4186332;28;20051;-77
2023/03/12 10:10:27;;;;;;;4.55;4.30;;;;;;;;;;4172625;28;20048;-78
2023/03/12 10:13:02;;;;;;;4.22;4.03;;;;;;;;;;4170384;28;20386;-77
2023/03/12 10:15:25;;;;;;;4.88;4.68;;;;;;;;;;4170938;28;20057;-77
2023/03/12 10:17:53;;;;;;;5.80;4.22;;;;;;;;;;4172764;28;20322;-77
2023/03/12 10:20:33;;;;;;;4.75;4.55;;;;;;;;;;4171957;28;20271;-78
2023/03/12 10:22:56;;;;;;;4.05;3.95;;;;;;;;;;4186642;28;20051;-78
2023/03/12 10:25:46;;;;;;;4.45;4.35;;;;;;;;;;4173122;28;20283;-78
2023/03/12 10:28:28;;;;;;;3.80;3.70;;;;;;;;;;4171698;28;20083;-78
2023/03/12 10:30:52;;;;;;;4.00;3.72;;;;;;;;;;4173393;28;20056;-78
2023/03/12 10:33:15;;;;;;;4.75;4.55;;;;;;;;;;4173240;28;20057;-78
2023/03/12 10:35:35;;;;;;;3.95;3.85;;;;;;;;;;4186469;28;20043;-78
2023/03/12 10:37:59;;;;;;;3.88;3.67;;;;;;;;;;4173527;28;20402;-78
2023/03/12 10:40:24;;;;;;;3.47;3.28;;;;;;;;;;4186492;28;20067;-78
2023/03/12 10:42:44;;;;;;;3.83;3.72;;;;;;;;;;4172515;28;20061;-78
2023/03/12 10:45:11;;;;;;;3.47;3.30;;;;;;;;;;4171392;28;20394;-78
2023/03/12 10:47:34;;;;;;;3.40;3.30;;;;;;;;;;4190993;28;20056;-78
2023/03/12 10:49:54;;;;;;;3.33;3.08;;;;;;;;;;4173469;28;20072;-78
2023/03/12 10:52:16;;;;;;;2.83;2.83;;;;;;;;;;4173394;28;20072;-78
2023/03/12 10:54:42;;;;;;;3.50;3.30;;;;;;;;;;4172464;28;20079;-77
2023/03/12 10:57:03;;;;;;;3.17;2.90;;;;;;;;;;4173233;28;20236;-78
2023/03/12 10:59:26;;;;;;;3.28;3.08;;;;;;;;;;4175662;28;20045;-78
2023/03/12 11:01:51;;;;;;;4.35;3.58;;;;;;;;;;4172283;28;20099;-78
2023/03/12 11:04:16;;;;;;;2.78;2.67;;;;;;;;;;4185521;28;20052;-78
2023/03/12 11:06:36;;;;;;;2.95;2.85;;;;;;;;;;4172211;28;20371;-78
2023/03/12 11:09:14;;;;;;;3.55;3.13;;;;;;;;;;4173128;28;20096;-78
2023/03/12 11:12:01;;;;;;;3.92;3.25;;;;;;;;;;4171990;28;20115;-89
2023/03/12 11:14:26;;;;;;;3.47;3.28;;;;;;;;;;4186265;28;20084;-89
2023/03/12 11:16:46;;;;;;;2.90;2.80;;;;;;;;;;4172526;28;20067;-89
2023/03/12 11:19:07;;;;;;;2.80;2.70;;;;;;;;;;4171128;28;20056;-89
2023/03/12 11:21:32;;;;;;;;;;;;;;;;;;4186203;28;20135;-88
2023/03/12 11:23:59;;;;;;;3.03;2.90;;;;;;;;;;4170807;28;20115;-89
2023/03/12 11:26:21;;;;;;;2.55;2.40;;;;;;;;;;4171408;28;20096;-88
2023/03/12 11:28:43;;;;;;;2.72;2.53;;;;;;;;;;4171700;28;20188;-88
2023/03/12 11:31:06;;;;;;;2.90;2.65;;;;;;;;;;4185176;28;20052;-89
2023/03/12 11:33:26;;;;;;;2.30;2.20;;;;;;;;;;4172079;28;20064;-88
2023/03/12 11:36:07;;;;;;;3.83;2.72;;;;;;;;;;4172343;28;20339;-89
2023/03/12 11:38:41;;;;;;;3.28;3.05;;;;;;;;;;4185027;28;20052;-85
2023/03/12 11:41:05;;;;;;;5.00;2.10;;;;;;;;;;4186550;28;20040;-84
2023/03/12 11:43:25;;;;;;;2.67;1.85;;;;;;;;;;4185684;28;20102;-84
2023/03/12 11:46:02;;;;;;;2.10;1.70;;;;;;;;;;4170900;28;20374;-84
2023/03/12 11:48:31;;;;;;;4.65;2.25;;;;;;;;;;4185041;28;20067;-84
2023/03/12 11:51:11;;;;;;;2.35;2.25;;;;;;;;;;4172842;28;20053;-84
2023/03/12 11:53:50;;;;;;;2.25;2.08;;;;;;;;;;4184247;28;20051;-84
2023/03/12 11:56:22;;;;;;;2.28;2.10;;;;;;;;;;4184925;28;20086;-84
2023/03/12 11:59:04;;;;;;;1.75;1.65;;;;;;;;;;4170245;28;20387;-84
2023/03/12 12:01:25;;;;;;;2.13;2.03;;;;;;;;;;4172174;28;20110;-84
2023/03/12 12:03:45;;;;;;;2.85;2.13;;;;;;;;;;4185006;28;20088;-84
2023/03/12 12:06:08;;;;;;;1.70;1.60;;;;;;;;;;4171903;28;20241;-84
2023/03/12 12:08:47;;;;;;;2.03;1.63;;;;;;;;;;4185194;28;20244;-84
2023/03/12 12:11:14;;;;;;;2.03;1.92;;;;;;;;;;4172359;28;20227;-84
2023/03/12 12:13:44;;;;;;;2.67;1.60;;;;;;;;;;4184539;28;20056;-84
2023/03/12 12:16:10;;;;;;;1.83;1.40;;;;;;;;;;4171456;28;20048;-84
2023/03/12 12:18:50;;;;;;;2.40;2.30;;;;;;;;;;4169700;28;20056;-84
2023/03/12 12:21:16;;;;;;;1.40;1.40;;;;;;;;;;4171350;28;20083;-84
2023/03/12 12:23:56;;;;;;;1.45;1.38;;;;;;;;;;4185315;28;20079;-84
2023/03/12 12:26:24;;;;;;;2.50;1.70;;;;;;;;;;4162585;28;20121;-84
2023/03/12 12:29:04;;;;;;;1.77;1.65;;;;;;;;;;4184893;28;20048;-84
2023/03/12 12:31:27;;;;;;;1.55;1.30;;;;;;;;;;4172059;28;20048;-84
2023/03/12 12:34:06;;;;;;;1.77;1.73;;;;;;;;;;4171778;28;20044;-84
2023/03/12 12:36:27;;;;;;;3.45;1.92;;;;;;;;;;4170930;28;20087;-84
2023/03/12 12:38:56;;;;;;;1.88;1.27;;;;;;;;;;4171074;28;20071;-84
2023/03/12 12:41:27;;;;;;;2.40;2.20;;;;;;;;;;4171943;28;20308;-84
2023/03/12 12:43:48;;;;;;;1.98;1.85;;;;;;;;;;4171262;28;20049;-84
2023/03/12 12:46:12;;;;;;;2.17;1.30;;;;;;;;;;4171350;28;20052;-84
2023/03/12 12:48:41;;;;;;;1.50;1.40;;;;;;;;;;4171573;28;20487;-84
2023/03/12 12:51:02;;;;;;;1.92;1.20;;;;;;;;;;4162706;28;20052;-84
2023/03/12 12:53:30;;;;;;;1.67;1.58;;;;;;;;;;4174838;28;20136;-84
2023/03/12 12:56:02;;;;;;;1.00;1.00;;;;;;;;;;4162138;28;20419;-83
2023/03/12 12:58:25;;;;;;;4.50;4.30;;;;;;;;;;4187548;28;20047;-83
2023/03/12 13:00:50;;;;;;;3.15;2.95;;;;;;;;;;4186990;28;20298;-83
2023/03/12 13:03:16;;;;;;;1.95;1.85;;;;;;;;;;4173645;28;20049;-84
2023/03/12 13:05:36;;;;;;;2.03;1.10;;;;;;;;;;4187196;28;20367;-84
2023/03/12 13:07:57;;;;;;;1.10;1.00;;;;;;;;;;4173946;28;20049;-86
2023/03/12 13:10:32;;;;;;;1.13;1.00;;;;;;;;;;4187712;28;20071;-86
2023/03/12 13:12:54;;;;;;;0.98;0.98;;;;;;;;;;4173195;28;20156;-85
2023/03/12 13:15:30;;;;;;;1.00;1.00;;;;;;;;;;4167581;28;20048;-85
2023/03/12 13:17:59;;;;;;;28.23;25.52;;;;;;;;;;4174627;28;20402;-86
2023/03/12 13:20:20;;;;;;;1.15;1.05;;;;;;;;;;4177276;28;20291;-85
2023/03/12 13:22:55;;;;;;;1.00;1.00;;;;;;;;;;4171516;28;20056;-85
2023/03/12 13:25:34;;;;;;;1.65;0.98;;;;;;;;;;4173328;28;20053;-86
2023/03/12 13:28:16;;;;;;;1.02;0.90;;;;;;;;;;4187126;28;20090;-85
2023/03/12 13:30:37;;;;;;;6.03;5.72;;;;;;;;;;4172374;28;20048;-86
2023/03/12 13:32:57;;;;;;;0.90;0.90;;;;;;;;;;4184508;28;20052;-86
2023/03/12 13:35:17;;;;;;;11.10;10.40;;;;;;;;;;4190161;28;20112;-86
2023/03/12 13:37:56;;;;;;;1.48;1.38;;;;;;;;;;4189799;28;20079;-86
2023/03/12 13:40:29;;;;;;;4.40;2.13;;;;;;;;;;4188323;28;20121;-85
2023/03/12 13:43:01;;;;;;;1.92;1.67;;;;;;;;;;4187236;28;20103;-85
2023/03/12 13:45:23;;;;;;;2.33;1.10;;;;;;;;;;4173819;28;20052;-85
2023/03/12 13:47:43;;;;;;;0.80;0.80;;;;;;;;;;4187146;28;20259;-85
2023/03/12 13:50:05;;;;;;;1.20;1.10;;;;;;;;;;4171844;28;20394;-87
2023/03/12 13:52:29;;;;;;;1.20;1.10;;;;;;;;;;4171551;28;20052;-85
2023/03/12 13:55:07;;;;;;;0.90;0.90;;;;;;;;;;4173455;28;20045;-85
2023/03/12 13:57:33;;;;;;;0.80;0.80;;;;;;;;;;4176329;28;20056;-86
2023/03/12 13:59:56;;;;;;;1.67;1.02;;;;;;;;;;4185541;28;20082;-85
2023/03/12 14:02:28;;;;;;;1.98;1.00;;;;;;;;;;4186769;28;20111;-85
2023/03/12 14:04:48;;;;;;;1.08;0.90;;;;;;;;;;4187067;28;20071;-86
2023/03/12 14:07:27;;;;;;;0.80;0.80;;;;;;;;;;4173955;28;20088;-86
2023/03/12 14:09:48;;;;;;;0.93;0.93;;;;;;;;;;4186920;28;20036;-86
2023/03/12 14:12:29;;;;;;;0.77;0.77;;;;;;;;;;4190808;28;20040;-86